sensor_id;sensor_type;location;lat;lon;timestamp;temperature;humidity
7512;DHT22;9999;48.780;9.146;2023-05-10T00:00:54;13.90;99.90
7512;DHT22;9999;48.780;9.146;2023-05-10T00:03:21;13.90;99.90
7512;DHT22;9999;48.780;9.146;2023-05-10T00:05:48;13.90;99.90
7512;DHT22;9999;48.780;9.146;2023-05-10T00:08:16;13.80;99.90
7512;DHT22;9999;48.780;9.146;2023-05-10T00:10:43;13.80;99.90
7512;DHT22;9999;48.780;9.146;2023-05-10T00:13:10;13.70;99.90
7512;DHT22;9999;48.780;9.146;2023-05-10T00:15:37;13.60;99.90
7512;DHT22;9999;48.780;9.146;2023-05-10T00:18:04;13.60;99.90
7512;DHT22;9999;48.780;9.146;2023-05-10T00:20:30;13.60;99.90
7512;DHT22;9999;48.780;9.146;2023-05-10T00:22:57;13.50;99.90
7512;DHT22;9999;48.780;9.146;2023-05-10T00:25:25;13.60;99.90
7512;DHT22;9999;48.780;9.146;2023-05-10T00:27:52;13.60;99.90
7512;DHT22;9999;48.780;9.146;2023-05-10T00:30:20;13.60;99.90
7512;DHT22;9999;48.780;9.146;2023-05-10T00:32:47;13.60;99.90
7512;DHT22;9999;48.780;9.146;2023-05-10T00:35:15;13.50;99.90
7512;DHT22;9999;48.780;9.146;2023-05-10T00:37:42;13.40;99.90
7512;DHT22;9999;48.780;9.146;2023-05-10T00:40:09;13.40;99.90
7512;DHT22;9999;48.780;9.146;2023-05-10T00:42:37;13.40;99.90
7512;DHT22;9999;48.780;9.146;2023-05-10T00:45:07;13.30;99.90
7512;DHT22;9999;48.780;9.146;2023-05-10T00:47:35;13.20;99.90
7512;DHT22;9999;48.780;9.146;2023-05-10T00:50:01;13.20;99.90
7512;DHT22;9999;48.780;9.146;2023-05-10T00:52:29;13.20;99.90
7512;DHT22;9999;48.780;9.146;2023-05-10T00:54:57;13.20;99.90
7512;DHT22;9999;48.780;9.146;2023-05-10T00:57:24;13.20;99.90
7512;DHT22;9999;48.780;9.146;2023-05-10T00:59:52;13.20;99.90
7512;DHT22;9999;48.780;9.146;2023-05-10T01:02:19;13.20;99.90
7512;DHT22;9999;48.780;9.146;2023-05-10T01:04:46;13.10;99.90
7512;DHT22;9999;48.780;9.146;2023-05-10T01:07:13;13.10;99.90
7512;DHT22;9999;48.780;9.146;2023-05-10T01:09:40;13.00;99.90
7512;DHT22;9999;48.780;9.146;2023-05-10T01:12:07;13.00;99.90
7512;DHT22;9999;48.780;9.146;2023-05-10T01:14:34;12.90;99.90
7512;DHT22;9999;48.780;9.146;2023-05-10T01:17:05;12.90;99.90
7512;DHT22;9999;48.780;9.146;2023-05-10T01:19:34;13.00;99.90
7512;DHT22;9999;48.780;9.146;2023-05-10T01:22:09;13.00;99.90
7512;DHT22;9999;48.780;9.146;2023-05-10T01:25:11;12.90;99.90
7512;DHT22;9999;48.780;9.146;2023-05-10T01:28:20;12.90;99.90
7512;DHT22;9999;48.780;9.146;2023-05-10T01:31:06;12.90;99.90
7512;DHT22;9999;48.780;9.146;2023-05-10T01:33:39;13.00;99.90
7512;DHT22;9999;48.780;9.146;2023-05-10T01:36:15;13.00;99.90
7512;DHT22;9999;48.780;9.146;2023-05-10T01:38:49;13.00;99.90
7512;DHT22;9999;48.780;9.146;2023-05-10T01:41:19;12.80;99.90
7512;DHT22;9999;48.780;9.146;2023-05-10T01:43:57;12.90;99.90
7512;DHT22;9999;48.780;9.146;2023-05-10T01:46:32;12.80;99.90
7512;DHT22;9999;48.780;9.146;2023-05-10T01:49:03;12.80;99.90
7512;DHT22;9999;48.780;9.146;2023-05-10T01:51:37;12.80;99.90
7512;DHT22;9999;48.780;9.146;2023-05-10T01:54:06;12.80;99.90
7512;DHT22;9999;48.780;9.146;2023-05-10T01:56:35;12.90;99.90
7512;DHT22;9999;48.780;9.146;2023-05-10T01:59:06;13.00;99.90
7512;DHT22;9999;48.780;9.146;2023-05-10T02:01:36;13.00;99.90
7512;DHT22;9999;48.780;9.146;2023-05-10T02:04:05;13.00;99.90
7512;DHT22;9999;48.780;9.146;2023-05-10T02:06:33;12.90;99.90
7512;DHT22;9999;48.780;9.146;2023-05-10T02:09:01;12.90;99.90
7512;DHT22;9999;48.780;9.146;2023-05-10T02:11:30;12.90;99.90
7512;DHT22;9999;48.780;9.146;2023-05-10T02:13:58;13.00;99.90
7512;DHT22;9999;48.780;9.146;2023-05-10T02:16:27;13.00;99.90
7512;DHT22;9999;48.780;9.146;2023-05-10T02:18:57;13.00;99.90
7512;DHT22;9999;48.780;9.146;2023-05-10T02:21:28;12.90;99.90
7512;DHT22;9999;48.780;9.146;2023-05-10T02:23:57;12.90;99.90
7512;DHT22;9999;48.780;9.146;2023-05-10T02:26:24;12.90;99.90
7512;DHT22;9999;48.780;9.146;2023-05-10T02:28:53;13.00;99.90
7512;DHT22;9999;48.780;9.146;2023-05-10T02:31:21;13.00;99.90
7512;DHT22;9999;48.780;9.146;2023-05-10T02:33:49;13.00;99.90
7512;DHT22;9999;48.780;9.146;2023-05-10T02:36:18;12.90;99.90
7512;DHT22;9999;48.780;9.146;2023-05-10T02:38:49;12.90;99.90
7512;DHT22;9999;48.780;9.146;2023-05-10T02:41:18;12.90;99.90
7512;DHT22;9999;48.780;9.146;2023-05-10T02:43:49;13.00;99.90
7512;DHT22;9999;48.780;9.146;2023-05-10T02:46:17;13.00;99.90
7512;DHT22;9999;48.780;9.146;2023-05-10T02:48:44;13.00;99.90
7512;DHT22;9999;48.780;9.146;2023-05-10T02:51:12;13.00;99.90
7512;DHT22;9999;48.780;9.146;2023-05-10T02:53:43;13.00;99.90
7512;DHT22;9999;48.780;9.146;2023-05-10T02:56:14;13.00;99.90
7512;DHT22;9999;48.780;9.146;2023-05-10T02:58:42;13.10;99.90
7512;DHT22;9999;48.780;9.146;2023-05-10T03:01:09;13.10;99.90
7512;DHT22;9999;48.780;9.146;2023-05-10T03:03:36;13.00;99.90
7512;DHT22;9999;48.780;9.146;2023-05-10T03:06:03;13.00;99.90
7512;DHT22;9999;48.780;9.146;2023-05-10T03:08:30;13.00;99.90
7512;DHT22;9999;48.780;9.146;2023-05-10T03:11:23;13.00;99.90
7512;DHT22;9999;48.780;9.146;2023-05-10T03:14:06;13.00;99.90
7512;DHT22;9999;48.780;9.146;2023-05-10T03:16:39;13.00;99.90
7512;DHT22;9999;48.780;9.146;2023-05-10T03:19:15;12.90;99.90
7512;DHT22;9999;48.780;9.146;2023-05-10T03:21:47;12.90;99.90
7512;DHT22;9999;48.780;9.146;2023-05-10T03:24:16;12.90;99.90
7512;DHT22;9999;48.780;9.146;2023-05-10T03:26:49;12.90;99.90
7512;DHT22;9999;48.780;9.146;2023-05-10T03:29:18;12.80;99.90
7512;DHT22;9999;48.780;9.146;2023-05-10T03:31:45;12.80;99.90
7512;DHT22;9999;48.780;9.146;2023-05-10T03:34:14;12.80;99.90
7512;DHT22;9999;48.780;9.146;2023-05-10T03:36:41;12.80;99.90
7512;DHT22;9999;48.780;9.146;2023-05-10T03:39:08;12.80;99.90
7512;DHT22;9999;48.780;9.146;2023-05-10T03:41:36;12.80;99.90
7512;DHT22;9999;48.780;9.146;2023-05-10T03:44:04;12.80;99.90
7512;DHT22;9999;48.780;9.146;2023-05-10T03:46:31;12.80;99.90
7512;DHT22;9999;48.780;9.146;2023-05-10T03:48:58;12.80;99.90
7512;DHT22;9999;48.780;9.146;2023-05-10T03:51:24;12.80;99.90
7512;DHT22;9999;48.780;9.146;2023-05-10T03:53:53;12.80;99.90
7512;DHT22;9999;48.780;9.146;2023-05-10T03:56:20;12.70;99.90
7512;DHT22;9999;48.780;9.146;2023-05-10T03:58:47;12.60;99.90
7512;DHT22;9999;48.780;9.146;2023-05-10T04:01:15;12.60;99.90
7512;DHT22;9999;48.780;9.146;2023-05-10T04:03:42;12.60;99.90
7512;DHT22;9999;48.780;9.146;2023-05-10T04:06:09;12.60;99.90
7512;DHT22;9999;48.780;9.146;2023-05-10T04:08:37;12.60;99.90
7512;DHT22;9999;48.780;9.146;2023-05-10T04:11:07;12.60;99.90
7512;DHT22;9999;48.780;9.146;2023-05-10T04:13:34;12.60;99.90
7512;DHT22;9999;48.780;9.146;2023-05-10T04:16:01;12.50;99.90
7512;DHT22;9999;48.780;9.146;2023-05-10T04:18:30;12.50;99.90
7512;DHT22;9999;48.780;9.146;2023-05-10T04:20:57;12.50;99.90
7512;DHT22;9999;48.780;9.146;2023-05-10T04:23:24;12.50;99.90
7512;DHT22;9999;48.780;9.146;2023-05-10T04:25:50;12.40;99.90
7512;DHT22;9999;48.780;9.146;2023-05-10T04:28:17;12.40;99.90
7512;DHT22;9999;48.780;9.146;2023-05-10T04:30:44;12.50;99.90
7512;DHT22;9999;48.780;9.146;2023-05-10T04:33:11;12.40;99.90
7512;DHT22;9999;48.780;9.146;2023-05-10T04:35:39;12.40;99.90
7512;DHT22;9999;48.780;9.146;2023-05-10T04:38:06;12.40;99.90
7512;DHT22;9999;48.780;9.146;2023-05-10T04:40:33;12.40;99.90
7512;DHT22;9999;48.780;9.146;2023-05-10T04:42:59;12.50;99.90
7512;DHT22;9999;48.780;9.146;2023-05-10T04:45:27;12.50;99.90
7512;DHT22;9999;48.780;9.146;2023-05-10T04:47:53;12.50;99.90
7512;DHT22;9999;48.780;9.146;2023-05-10T04:50:20;12.60;99.90
7512;DHT22;9999;48.780;9.146;2023-05-10T04:52:48;12.60;99.90
7512;DHT22;9999;48.780;9.146;2023-05-10T04:55:15;12.70;99.90
7512;DHT22;9999;48.780;9.146;2023-05-10T04:57:42;12.70;99.90
7512;DHT22;9999;48.780;9.146;2023-05-10T05:00:11;12.70;99.90
7512;DHT22;9999;48.780;9.146;2023-05-10T05:02:38;12.80;99.90
7512;DHT22;9999;48.780;9.146;2023-05-10T05:05:05;12.80;99.90
7512;DHT22;9999;48.780;9.146;2023-05-10T05:07:32;12.70;99.90
7512;DHT22;9999;48.780;9.146;2023-05-10T05:10:00;12.70;99.90
7512;DHT22;9999;48.780;9.146;2023-05-10T05:12:27;12.70;99.90
7512;DHT22;9999;48.780;9.146;2023-05-10T05:14:54;12.70;99.90
7512;DHT22;9999;48.780;9.146;2023-05-10T05:17:21;12.70;99.90
7512;DHT22;9999;48.780;9.146;2023-05-10T05:19:47;12.70;99.90
7512;DHT22;9999;48.780;9.146;2023-05-10T05:22:14;12.80;99.90
7512;DHT22;9999;48.780;9.146;2023-05-10T05:24:41;12.80;99.90
7512;DHT22;9999;48.780;9.146;2023-05-10T05:27:09;12.80;99.90
7512;DHT22;9999;48.780;9.146;2023-05-10T05:29:36;12.80;99.90
7512;DHT22;9999;48.780;9.146;2023-05-10T05:32:03;12.90;99.90
7512;DHT22;9999;48.780;9.146;2023-05-10T05:34:30;13.00;99.90
7512;DHT22;9999;48.780;9.146;2023-05-10T05:36:56;13.00;99.90
7512;DHT22;9999;48.780;9.146;2023-05-10T05:39:26;12.90;99.90
7512;DHT22;9999;48.780;9.146;2023-05-10T05:41:53;12.90;99.90
7512;DHT22;9999;48.780;9.146;2023-05-10T05:44:21;13.00;99.90
7512;DHT22;9999;48.780;9.146;2023-05-10T05:46:48;13.00;99.90
7512;DHT22;9999;48.780;9.146;2023-05-10T05:49:14;13.10;99.90
7512;DHT22;9999;48.780;9.146;2023-05-10T05:51:41;13.10;99.90
7512;DHT22;9999;48.780;9.146;2023-05-10T05:54:08;13.10;99.90
7512;DHT22;9999;48.780;9.146;2023-05-10T05:56:35;13.20;99.90
7512;DHT22;9999;48.780;9.146;2023-05-10T05:59:02;13.10;99.90
7512;DHT22;9999;48.780;9.146;2023-05-10T06:01:30;13.20;99.90
7512;DHT22;9999;48.780;9.146;2023-05-10T06:03:57;13.20;99.90
7512;DHT22;9999;48.780;9.146;2023-05-10T06:06:24;13.10;99.90
7512;DHT22;9999;48.780;9.146;2023-05-10T06:08:51;13.10;99.90
7512;DHT22;9999;48.780;9.146;2023-05-10T06:11:18;13.20;99.90
7512;DHT22;9999;48.780;9.146;2023-05-10T06:13:45;13.20;99.90
7512;DHT22;9999;48.780;9.146;2023-05-10T06:16:12;13.10;99.90
7512;DHT22;9999;48.780;9.146;2023-05-10T06:18:40;13.10;99.90
7512;DHT22;9999;48.780;9.146;2023-05-10T06:21:07;13.20;99.90
7512;DHT22;9999;48.780;9.146;2023-05-10T06:23:34;13.20;99.90
7512;DHT22;9999;48.780;9.146;2023-05-10T06:26:01;13.20;99.90
7512;DHT22;9999;48.780;9.146;2023-05-10T06:28:28;13.20;99.90
7512;DHT22;9999;48.780;9.146;2023-05-10T06:30:56;13.20;99.90
7512;DHT22;9999;48.780;9.146;2023-05-10T06:33:23;13.20;99.90
7512;DHT22;9999;48.780;9.146;2023-05-10T06:35:51;13.20;99.90
7512;DHT22;9999;48.780;9.146;2023-05-10T06:38:18;13.10;99.90
7512;DHT22;9999;48.780;9.146;2023-05-10T06:40:45;13.20;99.90
7512;DHT22;9999;48.780;9.146;2023-05-10T06:43:11;13.10;99.90
7512;DHT22;9999;48.780;9.146;2023-05-10T06:45:38;13.00;99.90
7512;DHT22;9999;48.780;9.146;2023-05-10T06:48:06;13.10;99.90
7512;DHT22;9999;48.780;9.146;2023-05-10T06:50:33;13.10;99.90
7512;DHT22;9999;48.780;9.146;2023-05-10T06:53:01;13.20;99.90
7512;DHT22;9999;48.780;9.146;2023-05-10T06:55:28;13.20;99.90
7512;DHT22;9999;48.780;9.146;2023-05-10T06:57:55;13.20;99.90
7512;DHT22;9999;48.780;9.146;2023-05-10T07:00:22;13.10;99.90
7512;DHT22;9999;48.780;9.146;2023-05-10T07:02:49;13.10;99.90
7512;DHT22;9999;48.780;9.146;2023-05-10T07:05:16;13.10;99.90
7512;DHT22;9999;48.780;9.146;2023-05-10T07:07:43;13.10;99.90
7512;DHT22;9999;48.780;9.146;2023-05-10T07:10:11;13.20;99.90
7512;DHT22;9999;48.780;9.146;2023-05-10T07:12:38;13.30;99.90
7512;DHT22;9999;48.780;9.146;2023-05-10T07:15:06;13.30;99.90
7512;DHT22;9999;48.780;9.146;2023-05-10T07:17:33;13.40;99.90
7512;DHT22;9999;48.780;9.146;2023-05-10T07:20:00;13.40;99.90
7512;DHT22;9999;48.780;9.146;2023-05-10T07:22:26;13.50;99.90
7512;DHT22;9999;48.780;9.146;2023-05-10T07:24:54;13.40;99.90
7512;DHT22;9999;48.780;9.146;2023-05-10T07:27:22;13.50;99.90
7512;DHT22;9999;48.780;9.146;2023-05-10T07:29:49;13.60;99.90
7512;DHT22;9999;48.780;9.146;2023-05-10T07:32:15;13.50;99.90
7512;DHT22;9999;48.780;9.146;2023-05-10T07:34:42;13.50;99.90
7512;DHT22;9999;48.780;9.146;2023-05-10T07:37:09;13.60;99.90
7512;DHT22;9999;48.780;9.146;2023-05-10T07:39:36;13.60;99.90
7512;DHT22;9999;48.780;9.146;2023-05-10T07:42:02;13.60;99.90
7512;DHT22;9999;48.780;9.146;2023-05-10T07:44:30;13.70;99.90
7512;DHT22;9999;48.780;9.146;2023-05-10T07:46:57;13.80;99.90
7512;DHT22;9999;48.780;9.146;2023-05-10T07:49:24;13.80;99.90
7512;DHT22;9999;48.780;9.146;2023-05-10T07:51:51;13.90;99.90
7512;DHT22;9999;48.780;9.146;2023-05-10T07:54:17;13.90;99.90
7512;DHT22;9999;48.780;9.146;2023-05-10T07:56:44;14.00;99.90
7512;DHT22;9999;48.780;9.146;2023-05-10T07:59:15;14.00;99.90
7512;DHT22;9999;48.780;9.146;2023-05-10T08:01:43;14.00;99.90
7512;DHT22;9999;48.780;9.146;2023-05-10T08:04:10;14.00;99.90
7512;DHT22;9999;48.780;9.146;2023-05-10T08:06:37;14.00;99.90
7512;DHT22;9999;48.780;9.146;2023-05-10T08:09:04;14.00;99.90
7512;DHT22;9999;48.780;9.146;2023-05-10T08:11:31;14.00;99.90
7512;DHT22;9999;48.780;9.146;2023-05-10T08:13:58;14.00;99.90
7512;DHT22;9999;48.780;9.146;2023-05-10T08:16:25;13.90;99.90
7512;DHT22;9999;48.780;9.146;2023-05-10T08:18:53;13.90;99.90
7512;DHT22;9999;48.780;9.146;2023-05-10T08:21:20;13.80;99.90
7512;DHT22;9999;48.780;9.146;2023-05-10T08:23:47;13.80;99.90
7512;DHT22;9999;48.780;9.146;2023-05-10T08:26:14;13.90;99.90
7512;DHT22;9999;48.780;9.146;2023-05-10T08:28:41;14.00;99.90
7512;DHT22;9999;48.780;9.146;2023-05-10T08:31:08;14.10;99.90
7512;DHT22;9999;48.780;9.146;2023-05-10T08:33:34;14.10;99.90
7512;DHT22;9999;48.780;9.146;2023-05-10T08:36:03;14.00;99.90
7512;DHT22;9999;48.780;9.146;2023-05-10T08:38:30;14.00;99.90
7512;DHT22;9999;48.780;9.146;2023-05-10T08:40:57;14.10;99.90
7512;DHT22;9999;48.780;9.146;2023-05-10T08:43:27;14.20;99.90
7512;DHT22;9999;48.780;9.146;2023-05-10T08:45:55;14.20;99.90
7512;DHT22;9999;48.780;9.146;2023-05-10T08:48:23;14.20;99.90
7512;DHT22;9999;48.780;9.146;2023-05-10T08:50:53;14.30;99.90
7512;DHT22;9999;48.780;9.146;2023-05-10T08:53:24;14.40;99.90
7512;DHT22;9999;48.780;9.146;2023-05-10T08:55:53;14.30;99.90
7512;DHT22;9999;48.780;9.146;2023-05-10T08:58:20;14.30;99.90
7512;DHT22;9999;48.780;9.146;2023-05-10T09:00:48;14.30;99.90
7512;DHT22;9999;48.780;9.146;2023-05-10T09:03:16;14.40;99.90
7512;DHT22;9999;48.780;9.146;2023-05-10T09:05:44;14.50;99.90
7512;DHT22;9999;48.780;9.146;2023-05-10T09:08:11;14.60;99.90
7512;DHT22;9999;48.780;9.146;2023-05-10T09:10:40;14.50;99.90
7512;DHT22;9999;48.780;9.146;2023-05-10T09:13:10;14.60;99.90
7512;DHT22;9999;48.780;9.146;2023-05-10T09:15:37;14.60;99.90
7512;DHT22;9999;48.780;9.146;2023-05-10T09:18:04;14.60;99.90
7512;DHT22;9999;48.780;9.146;2023-05-10T09:20:31;14.60;99.90
7512;DHT22;9999;48.780;9.146;2023-05-10T09:22:58;14.40;99.90
7512;DHT22;9999;48.780;9.146;2023-05-10T09:25:25;14.40;99.90
7512;DHT22;9999;48.780;9.146;2023-05-10T09:27:53;14.40;99.90
7512;DHT22;9999;48.780;9.146;2023-05-10T09:30:24;14.30;99.90
7512;DHT22;9999;48.780;9.146;2023-05-10T09:32:52;14.30;99.90
7512;DHT22;9999;48.780;9.146;2023-05-10T09:35:20;14.30;99.90
7512;DHT22;9999;48.780;9.146;2023-05-10T09:37:49;14.30;99.90
7512;DHT22;9999;48.780;9.146;2023-05-10T09:40:18;14.30;99.90
7512;DHT22;9999;48.780;9.146;2023-05-10T09:42:53;14.30;99.90
7512;DHT22;9999;48.780;9.146;2023-05-10T09:45:20;14.50;99.90
7512;DHT22;9999;48.780;9.146;2023-05-10T09:47:47;14.60;99.90
7512;DHT22;9999;48.780;9.146;2023-05-10T09:50:14;14.70;99.90
7512;DHT22;9999;48.780;9.146;2023-05-10T09:52:49;14.90;99.90
7512;DHT22;9999;48.780;9.146;2023-05-10T09:55:18;15.00;99.90
7512;DHT22;9999;48.780;9.146;2023-05-10T09:57:45;15.00;99.90
7512;DHT22;9999;48.780;9.146;2023-05-10T10:00:18;15.10;99.90
7512;DHT22;9999;48.780;9.146;2023-05-10T10:02:47;15.20;99.90
7512;DHT22;9999;48.780;9.146;2023-05-10T10:05:14;15.20;99.90
7512;DHT22;9999;48.780;9.146;2023-05-10T10:07:41;15.20;99.90
7512;DHT22;9999;48.780;9.146;2023-05-10T10:10:09;15.20;99.90
7512;DHT22;9999;48.780;9.146;2023-05-10T10:12:40;15.10;99.90
7512;DHT22;9999;48.780;9.146;2023-05-10T10:15:08;15.00;99.90
7512;DHT22;9999;48.780;9.146;2023-05-10T10:17:37;14.90;99.90
7512;DHT22;9999;48.780;9.146;2023-05-10T10:20:06;14.90;99.90
7512;DHT22;9999;48.780;9.146;2023-05-10T10:22:33;14.90;99.90
7512;DHT22;9999;48.780;9.146;2023-05-10T10:25:00;15.00;99.90
7512;DHT22;9999;48.780;9.146;2023-05-10T10:27:36;15.10;99.90
7512;DHT22;9999;48.780;9.146;2023-05-10T10:30:14;15.20;99.90
7512;DHT22;9999;48.780;9.146;2023-05-10T10:33:01;15.20;99.90
7512;DHT22;9999;48.780;9.146;2023-05-10T10:35:33;15.20;99.90
7512;DHT22;9999;48.780;9.146;2023-05-10T10:38:01;15.20;99.90
7512;DHT22;9999;48.780;9.146;2023-05-10T10:40:30;15.10;99.90
7512;DHT22;9999;48.780;9.146;2023-05-10T10:42:57;15.20;99.90
7512;DHT22;9999;48.780;9.146;2023-05-10T10:45:25;15.20;99.90
7512;DHT22;9999;48.780;9.146;2023-05-10T10:48:20;15.20;99.90
7512;DHT22;9999;48.780;9.146;2023-05-10T10:50:47;15.10;99.90
7512;DHT22;9999;48.780;9.146;2023-05-10T10:53:14;15.10;99.90
7512;DHT22;9999;48.780;9.146;2023-05-10T10:55:48;15.00;99.90
7512;DHT22;9999;48.780;9.146;2023-05-10T10:58:29;14.90;99.90
7512;DHT22;9999;48.780;9.146;2023-05-10T11:01:10;14.90;99.90
7512;DHT22;9999;48.780;9.146;2023-05-10T11:03:39;14.90;99.90
7512;DHT22;9999;48.780;9.146;2023-05-10T11:06:05;14.70;99.90
7512;DHT22;9999;48.780;9.146;2023-05-10T11:08:39;14.60;99.90
7512;DHT22;9999;48.780;9.146;2023-05-10T11:11:08;14.50;99.90
7512;DHT22;9999;48.780;9.146;2023-05-10T11:13:38;14.30;99.90
7512;DHT22;9999;48.780;9.146;2023-05-10T11:16:14;14.30;99.90
7512;DHT22;9999;48.780;9.146;2023-05-10T11:18:54;14.30;99.90
7512;DHT22;9999;48.780;9.146;2023-05-10T11:21:23;14.20;99.90
7512;DHT22;9999;48.780;9.146;2023-05-10T11:23:51;14.30;99.90
7512;DHT22;9999;48.780;9.146;2023-05-10T11:26:21;14.40;99.90
7512;DHT22;9999;48.780;9.146;2023-05-10T11:28:51;14.60;99.90
7512;DHT22;9999;48.780;9.146;2023-05-10T11:31:19;14.70;99.90
7512;DHT22;9999;48.780;9.146;2023-05-10T11:33:48;14.80;99.90
7512;DHT22;9999;48.780;9.146;2023-05-10T11:36:18;14.90;99.90
7512;DHT22;9999;48.780;9.146;2023-05-10T11:38:46;14.90;99.90
7512;DHT22;9999;48.780;9.146;2023-05-10T11:41:14;14.90;99.90
7512;DHT22;9999;48.780;9.146;2023-05-10T11:43:41;15.00;99.90
7512;DHT22;9999;48.780;9.146;2023-05-10T11:46:11;15.10;99.90
7512;DHT22;9999;48.780;9.146;2023-05-10T11:48:38;15.00;99.90
7512;DHT22;9999;48.780;9.146;2023-05-10T11:51:06;14.90;99.90
7512;DHT22;9999;48.780;9.146;2023-05-10T11:53:34;14.90;99.90
7512;DHT22;9999;48.780;9.146;2023-05-10T11:56:05;14.80;99.90
7512;DHT22;9999;48.780;9.146;2023-05-10T11:58:32;14.70;99.90
7512;DHT22;9999;48.780;9.146;2023-05-10T12:00:59;14.70;99.90
7512;DHT22;9999;48.780;9.146;2023-05-10T12:03:27;14.40;99.90
7512;DHT22;9999;48.780;9.146;2023-05-10T12:05:54;14.40;99.90
7512;DHT22;9999;48.780;9.146;2023-05-10T12:08:23;14.40;99.90
7512;DHT22;9999;48.780;9.146;2023-05-10T12:10:51;14.40;99.90
7512;DHT22;9999;48.780;9.146;2023-05-10T12:13:19;14.50;99.90
7512;DHT22;9999;48.780;9.146;2023-05-10T12:15:47;14.60;99.90
7512;DHT22;9999;48.780;9.146;2023-05-10T12:18:14;14.70;99.90
7512;DHT22;9999;48.780;9.146;2023-05-10T12:20:41;14.70;99.90
7512;DHT22;9999;48.780;9.146;2023-05-10T12:23:09;14.90;99.90
7512;DHT22;9999;48.780;9.146;2023-05-10T12:25:37;14.90;99.90
7512;DHT22;9999;48.780;9.146;2023-05-10T12:28:07;14.90;99.90
7512;DHT22;9999;48.780;9.146;2023-05-10T12:30:36;14.90;99.90
7512;DHT22;9999;48.780;9.146;2023-05-10T12:33:08;15.00;99.90
7512;DHT22;9999;48.780;9.146;2023-05-10T12:35:44;15.00;99.90
7512;DHT22;9999;48.780;9.146;2023-05-10T12:38:28;15.10;99.90
7512;DHT22;9999;48.780;9.146;2023-05-10T12:40:57;15.10;99.90
7512;DHT22;9999;48.780;9.146;2023-05-10T12:43:25;15.00;99.90
7512;DHT22;9999;48.780;9.146;2023-05-10T12:45:52;15.00;99.90
7512;DHT22;9999;48.780;9.146;2023-05-10T12:48:19;15.00;99.90
7512;DHT22;9999;48.780;9.146;2023-05-10T12:50:46;15.10;99.90
7512;DHT22;9999;48.780;9.146;2023-05-10T12:53:13;15.00;99.90
7512;DHT22;9999;48.780;9.146;2023-05-10T12:55:40;14.90;99.90
7512;DHT22;9999;48.780;9.146;2023-05-10T12:58:07;14.90;99.90
7512;DHT22;9999;48.780;9.146;2023-05-10T13:00:36;14.90;99.90
7512;DHT22;9999;48.780;9.146;2023-05-10T13:03:03;14.90;99.90
7512;DHT22;9999;48.780;9.146;2023-05-10T13:05:30;14.90;99.90
7512;DHT22;9999;48.780;9.146;2023-05-10T13:07:57;14.80;99.90
7512;DHT22;9999;48.780;9.146;2023-05-10T13:10:24;14.70;99.90
7512;DHT22;9999;48.780;9.146;2023-05-10T13:12:51;14.60;99.90
7512;DHT22;9999;48.780;9.146;2023-05-10T13:15:18;14.70;99.90
7512;DHT22;9999;48.780;9.146;2023-05-10T13:17:46;14.70;99.90
7512;DHT22;9999;48.780;9.146;2023-05-10T13:20:13;14.80;99.90
7512;DHT22;9999;48.780;9.146;2023-05-10T13:22:40;14.80;99.90
7512;DHT22;9999;48.780;9.146;2023-05-10T13:25:07;14.80;99.90
7512;DHT22;9999;48.780;9.146;2023-05-10T13:27:34;14.80;99.90
7512;DHT22;9999;48.780;9.146;2023-05-10T13:30:01;14.60;99.90
7512;DHT22;9999;48.780;9.146;2023-05-10T13:32:28;14.80;99.90
7512;DHT22;9999;48.780;9.146;2023-05-10T13:34:56;14.90;99.90
7512;DHT22;9999;48.780;9.146;2023-05-10T13:37:23;14.80;99.90
7512;DHT22;9999;48.780;9.146;2023-05-10T13:39:50;15.00;99.90
7512;DHT22;9999;48.780;9.146;2023-05-10T13:42:17;15.10;99.90
7512;DHT22;9999;48.780;9.146;2023-05-10T13:44:44;15.10;99.90
7512;DHT22;9999;48.780;9.146;2023-05-10T13:47:11;14.90;99.90
7512;DHT22;9999;48.780;9.146;2023-05-10T13:49:37;14.90;99.90
7512;DHT22;9999;48.780;9.146;2023-05-10T13:52:06;14.80;99.90
7512;DHT22;9999;48.780;9.146;2023-05-10T13:54:33;14.80;99.90
7512;DHT22;9999;48.780;9.146;2023-05-10T13:57:00;14.90;99.90
7512;DHT22;9999;48.780;9.146;2023-05-10T13:59:26;14.90;99.90
7512;DHT22;9999;48.780;9.146;2023-05-10T14:01:53;15.00;99.90
7512;DHT22;9999;48.780;9.146;2023-05-10T14:04:20;15.10;99.90
7512;DHT22;9999;48.780;9.146;2023-05-10T14:06:47;15.10;99.90
7512;DHT22;9999;48.780;9.146;2023-05-10T14:09:15;15.30;99.90
7512;DHT22;9999;48.780;9.146;2023-05-10T14:11:42;15.30;99.90
7512;DHT22;9999;48.780;9.146;2023-05-10T14:14:10;15.40;99.90
7512;DHT22;9999;48.780;9.146;2023-05-10T14:16:38;15.20;99.90
7512;DHT22;9999;48.780;9.146;2023-05-10T14:19:05;15.20;99.90
7512;DHT22;9999;48.780;9.146;2023-05-10T14:21:31;15.10;99.90
7512;DHT22;9999;48.780;9.146;2023-05-10T14:23:58;15.00;99.90
7512;DHT22;9999;48.780;9.146;2023-05-10T14:26:26;15.10;99.90
7512;DHT22;9999;48.780;9.146;2023-05-10T14:28:53;15.20;99.90
7512;DHT22;9999;48.780;9.146;2023-05-10T14:31:20;15.40;99.90
7512;DHT22;9999;48.780;9.146;2023-05-10T14:33:48;15.40;99.90
7512;DHT22;9999;48.780;9.146;2023-05-10T14:36:15;15.60;99.90
7512;DHT22;9999;48.780;9.146;2023-05-10T14:38:42;15.60;99.90
7512;DHT22;9999;48.780;9.146;2023-05-10T14:41:08;15.40;99.90
7512;DHT22;9999;48.780;9.146;2023-05-10T14:43:40;15.40;99.90
7512;DHT22;9999;48.780;9.146;2023-05-10T14:46:07;15.50;99.90
7512;DHT22;9999;48.780;9.146;2023-05-10T14:48:34;15.50;99.90
7512;DHT22;9999;48.780;9.146;2023-05-10T14:51:01;15.50;99.90
7512;DHT22;9999;48.780;9.146;2023-05-10T14:53:29;15.50;99.90
7512;DHT22;9999;48.780;9.146;2023-05-10T14:55:55;15.40;99.90
7512;DHT22;9999;48.780;9.146;2023-05-10T14:58:22;15.30;99.90
7512;DHT22;9999;48.780;9.146;2023-05-10T15:00:50;15.30;99.90
7512;DHT22;9999;48.780;9.146;2023-05-10T15:03:17;15.30;99.90
7512;DHT22;9999;48.780;9.146;2023-05-10T15:05:44;15.20;99.90
7512;DHT22;9999;48.780;9.146;2023-05-10T15:08:11;15.30;99.90
7512;DHT22;9999;48.780;9.146;2023-05-10T15:10:38;15.40;99.90
7512;DHT22;9999;48.780;9.146;2023-05-10T15:13:04;15.50;99.90
7512;DHT22;9999;48.780;9.146;2023-05-10T15:15:31;15.50;99.90
7512;DHT22;9999;48.780;9.146;2023-05-10T15:17:59;15.50;99.90
7512;DHT22;9999;48.780;9.146;2023-05-10T15:20:26;15.60;99.90
7512;DHT22;9999;48.780;9.146;2023-05-10T15:22:53;15.40;99.90
7512;DHT22;9999;48.780;9.146;2023-05-10T15:25:20;15.40;99.90
7512;DHT22;9999;48.780;9.146;2023-05-10T15:27:46;15.40;99.90
7512;DHT22;9999;48.780;9.146;2023-05-10T15:30:14;15.30;99.90
7512;DHT22;9999;48.780;9.146;2023-05-10T15:32:40;15.30;99.90
7512;DHT22;9999;48.780;9.146;2023-05-10T15:35:10;15.40;99.90
7512;DHT22;9999;48.780;9.146;2023-05-10T15:37:37;15.40;99.90
7512;DHT22;9999;48.780;9.146;2023-05-10T15:40:05;15.40;99.90
7512;DHT22;9999;48.780;9.146;2023-05-10T15:42:32;15.50;99.90
7512;DHT22;9999;48.780;9.146;2023-05-10T15:44:59;15.60;99.90
7512;DHT22;9999;48.780;9.146;2023-05-10T15:47:26;15.50;99.90
7512;DHT22;9999;48.780;9.146;2023-05-10T15:49:53;15.40;99.90
7512;DHT22;9999;48.780;9.146;2023-05-10T15:52:21;15.50;99.90
7512;DHT22;9999;48.780;9.146;2023-05-10T15:54:48;15.60;99.90
7512;DHT22;9999;48.780;9.146;2023-05-10T15:57:15;15.50;99.90
7512;DHT22;9999;48.780;9.146;2023-05-10T15:59:42;15.40;99.90
7512;DHT22;9999;48.780;9.146;2023-05-10T16:02:10;15.40;99.90
7512;DHT22;9999;48.780;9.146;2023-05-10T16:04:37;15.40;99.90
7512;DHT22;9999;48.780;9.146;2023-05-10T16:07:04;15.40;99.90
7512;DHT22;9999;48.780;9.146;2023-05-10T16:09:32;15.40;99.90